Time;durP1;ratioP1;P1;durP2;ratioP2;P2;SDS_P1;SDS_P2;PMS_P1;PMS_P2;Temp;Humidity;BMP_temperature;BMP_pressure;BME280_temperature;BME280_humidity;BME280_pressure;Samples;Min_cycle;Max_cycle;Signal;HPM_P1;HPM_P2
2022/10/25 00:02:22;;;;;;;16.67;4.95;;;;;;;14.87;83.51;94903.78;5071588;28;20185;-61
2022/10/25 00:04:48;;;;;;;14.30;4.57;;;;;;;14.91;83.12;94912.75;5071831;28;20208;-63
2022/10/25 00:07:14;;;;;;;15.82;5.00;;;;;;;14.78;84.52;94888.53;5036933;28;20196;-63
2022/10/25 00:09:39;;;;;;;19.30;5.57;;;;;;;14.77;84.87;94880.03;5071539;28;20625;-62
2022/10/25 00:12:05;;;;;;;16.70;5.50;;;;;;;14.79;84.60;94887.56;5071301;28;20181;-64
2022/10/25 00:14:31;;;;;;;15.38;5.05;;;;;;;14.78;84.58;94891.88;5071025;28;20209;-63
2022/10/25 00:16:56;;;;;;;11.48;4.68;;;;;;;14.68;84.91;94878.38;5071162;28;20184;-61
2022/10/25 00:19:22;;;;;;;14.63;5.28;;;;;;;14.55;85.77;94882.25;5070585;28;20211;-61
2022/10/25 00:21:47;;;;;;;14.88;4.78;;;;;;;14.50;85.93;94875.03;5070325;28;20185;-61
2022/10/25 00:24:13;;;;;;;19.17;4.90;;;;;;;14.57;85.56;94877.78;5052985;28;20240;-62
2022/10/25 00:26:41;;;;;;;16.92;5.10;;;;;;;14.55;85.43;94883.06;5053155;28;20184;-64
2022/10/25 00:29:09;;;;;;;19.38;6.38;;;;;;;14.45;86.68;94866.19;5071306;28;20238;-63
2022/10/25 00:31:36;;;;;;;16.80;5.18;;;;;;;14.30;88.13;94848.03;5071205;28;20185;-62
2022/10/25 00:34:01;;;;;;;16.00;4.63;;;;;;;14.40;86.84;94874.31;5069626;28;20239;-62
2022/10/25 00:36:27;;;;;;;14.25;6.15;;;;;;;14.20;87.67;94872.84;5070904;28;20289;-63
2022/10/25 00:38:54;;;;;;;16.13;5.43;;;;;;;14.37;87.69;94873.78;5070587;28;20205;-62
2022/10/25 00:41:24;;;;;;;13.65;4.75;;;;;;;14.26;88.38;94856.91;5070918;28;20192;-61
2022/10/25 00:43:55;;;;;;;15.68;4.50;;;;;;;14.35;87.13;94881.63;5070906;28;20219;-62
2022/10/25 00:46:20;;;;;;;16.35;4.60;;;;;;;14.27;88.42;94864.44;5071110;28;20192;-63
2022/10/25 00:48:57;;;;;;;15.68;5.18;;;;;;;14.28;86.92;94883.97;5071073;28;20193;-63
2022/10/25 00:51:27;;;;;;;12.07;4.80;;;;;;;14.29;89.49;94842.09;5070851;28;20250;-61
2022/10/25 00:53:53;;;;;;;12.95;4.93;;;;;;;14.02;89.76;94833.66;5070864;28;20204;-61
2022/10/25 00:56:23;;;;;;;23.67;5.50;;;;;;;14.00;90.66;94830.44;5070655;28;20296;-60
2022/10/25 00:58:52;;;;;;;15.32;5.50;;;;;;;13.99;90.00;94844.19;5069457;28;20749;-61
2022/10/25 01:01:18;;;;;;;13.45;5.45;;;;;;;14.07;90.00;94841.72;5070657;28;20215;-60
2022/10/25 01:03:48;;;;;;;17.77;5.03;;;;;;;13.96;90.78;94841.91;5070776;28;20192;-62
2022/10/25 01:06:25;;;;;;;13.45;4.55;;;;;;;13.72;92.48;94826.34;5070652;28;20189;-62
2022/10/25 01:08:52;;;;;;;14.40;5.25;;;;;;;13.69;93.30;94822.34;5070924;28;20208;-61
2022/10/25 01:11:18;;;;;;;14.68;5.13;;;;;;;13.59;93.80;94825.91;5070666;28;20267;-62
2022/10/25 01:13:45;;;;;;;13.77;5.93;;;;;;;13.66;93.64;94832.03;5070777;28;20667;-62
2022/10/25 01:16:36;;;;;;;25.60;5.60;;;;;;;13.62;94.35;94830.72;5070514;28;20240;-61
2022/10/25 01:19:20;;;;;;;15.23;5.70;;;;;;;13.46;95.35;94827.06;5068151;28;20273;-62
2022/10/25 01:21:51;;;;;;;15.07;4.68;;;;;;;13.38;96.86;94823.59;5070522;28;20237;-61
2022/10/25 01:24:44;;;;;;;15.17;5.03;;;;;;;13.28;97.53;94833.88;5070696;28;20212;-65
2022/10/25 01:27:37;;;;;;;17.67;4.95;;;;;;;13.18;98.12;94845.06;5070466;28;20196;-60
2022/10/25 01:30:08;;;;;;;12.23;5.07;;;;;;;13.24;98.72;94854.72;5070878;28;20219;-63
2022/10/25 01:32:52;;;;;;;16.37;5.43;;;;;;;13.22;97.84;94859.16;5070372;28;20184;-62
2022/10/25 01:35:31;;;;;;;13.93;4.40;;;;;;;13.19;99.06;94854.34;5052169;28;20246;-60
2022/10/25 01:38:09;;;;;;;20.53;5.67;;;;;;;13.30;98.60;94872.00;5070293;28;20294;-60
2022/10/25 01:41:07;;;;;;;12.37;4.73;;;;;;;13.40;96.91;94880.44;5070600;28;20212;-63
2022/10/25 01:43:44;;;;;;;15.40;5.17;;;;;;;13.41;98.46;94864.97;5052190;28;20208;-65
2022/10/25 01:46:30;;;;;;;16.33;6.95;;;;;;;13.49;98.59;94859.94;5070068;28;20189;-62
2022/10/25 01:49:03;;;;;;;20.02;5.78;;;;;;;13.68;96.66;94888.91;5070337;28;20225;-59
2022/10/25 01:51:28;;;;;;;14.40;4.97;;;;;;;13.77;95.10;94900.81;5072296;28;20196;-59
2022/10/25 01:53:53;;;;;;;17.30;5.90;;;;;;;13.62;96.39;94876.69;5073847;28;20595;-60
2022/10/25 01:56:40;;;;;;;16.98;6.00;;;;;;;13.44;98.31;94858.78;5073537;28;20212;-63
2022/10/25 02:00:02;;;;;;;15.52;5.82;;;;;;;13.58;97.20;94873.63;5073692;28;20239;-63
2022/10/25 02:02:58;;;;;;;13.10;4.53;;;;;;;13.69;95.48;94893.06;5011884;28;20664;-63
2022/10/25 02:05:36;;;;;;;17.67;5.22;;;;;;;13.55;95.90;94880.78;5055310;28;20643;-62
2022/10/25 02:08:09;;;;;;;16.58;5.13;;;;;;;13.38;96.33;94875.47;5073320;28;20173;-63
2022/10/25 02:10:40;;;;;;;17.77;8.35;;;;;;;13.34;97.39;94871.59;5073302;28;20686;-62
2022/10/25 02:13:15;;;;;;;13.45;5.13;;;;;;;13.25;97.19;94871.66;5073322;28;20242;-63
2022/10/25 02:15:57;;;;;;;16.15;5.45;;;;;;;13.21;98.48;94855.78;5072943;28;20597;-63
2022/10/25 02:18:28;;;;;;;19.75;5.30;;;;;;;13.41;96.20;94887.16;5073597;28;20196;-59
2022/10/25 02:20:55;;;;;;;16.98;5.53;;;;;;;13.24;97.89;94865.72;5055464;28;20208;-64
2022/10/25 02:23:22;;;;;;;20.75;4.78;;;;;;;13.21;99.04;94863.44;5073146;28;20681;-63
2022/10/25 02:25:50;;;;;;;15.80;4.80;;;;;;;13.19;99.49;94847.47;5072880;28;20213;-64
2022/10/25 02:28:18;;;;;;;16.02;5.75;;;;;;;13.25;99.15;94862.22;5054968;28;20207;-63
2022/10/25 02:30:47;;;;;;;20.15;5.97;;;;;;;13.30;98.40;94865.16;5072885;28;20270;-63
2022/10/25 02:33:15;;;;;;;16.67;5.90;;;;;;;13.25;98.87;94869.09;5054739;28;20203;-61
2022/10/25 02:35:40;;;;;;;13.90;5.13;;;;;;;13.19;99.42;94855.13;5072622;28;20217;-62
2022/10/25 02:38:06;;;;;;;12.87;4.97;;;;;;;13.25;99.25;94854.56;5072874;28;20211;-60
2022/10/25 02:40:31;;;;;;;16.33;5.60;;;;;;;13.19;98.49;94867.09;5072675;28;20212;-63
2022/10/25 02:42:57;;;;;;;17.77;5.50;;;;;;;12.99;100.00;94835.69;5072657;28;20185;-61
2022/10/25 02:45:23;;;;;;;19.77;6.72;;;;;;;13.05;100.00;94836.94;5072670;28;20771;-63
2022/10/25 02:47:48;;;;;;;21.60;5.87;;;;;;;13.02;100.00;94834.63;5072759;28;20267;-59
2022/10/25 02:50:14;;;;;;;16.38;5.70;;;;;;;12.99;100.00;94832.34;5072741;28;20201;-62
2022/10/25 02:52:39;;;;;;;19.55;5.93;;;;;;;13.12;100.00;94845.63;5054703;28;20200;-63
2022/10/25 02:55:05;;;;;;;16.00;5.47;;;;;;;13.28;100.00;94856.03;5072882;28;20248;-63
2022/10/25 02:57:33;;;;;;;22.37;5.23;;;;;;;13.21;100.00;94862.66;5072690;28;20306;-59
2022/10/25 02:59:58;;;;;;;20.67;5.20;;;;;;;13.45;98.51;94881.63;5072858;28;20205;-61
2022/10/25 03:02:24;;;;;;;12.48;4.88;;;;;;;13.49;97.78;94895.72;5072143;28;20187;-63
2022/10/25 03:04:49;;;;;;;14.20;5.28;;;;;;;13.38;97.51;94885.69;5054443;28;20205;-62
2022/10/25 03:07:15;;;;;;;11.95;4.45;;;;;;;13.28;98.31;94879.81;5054336;28;20184;-64
2022/10/25 03:09:40;;;;;;;10.52;4.70;;;;;;;13.23;98.28;94876.88;5072297;28;20205;-60
2022/10/25 03:12:05;;;;;;;15.93;5.43;;;;;;;12.90;100.00;94834.00;5072454;28;20243;-59
2022/10/25 03:14:31;;;;;;;21.43;5.77;;;;;;;12.84;100.00;94832.00;5056687;23;20705;-62
2022/10/25 03:16:56;;;;;;;14.10;6.07;;;;;;;12.70;100.00;94821.41;5012626;28;20265;-62
2022/10/25 03:19:22;;;;;;;17.53;6.03;;;;;;;12.65;100.00;94835.41;5012808;28;20207;-62
2022/10/25 03:21:47;;;;;;;12.93;5.63;;;;;;;12.81;100.00;94837.34;5012612;28;20179;-63
2022/10/25 03:24:13;;;;;;;11.95;5.40;;;;;;;12.78;100.00;94844.50;5012274;28;20276;-62
2022/10/25 03:26:38;;;;;;;21.65;6.10;;;;;;;12.85;100.00;94845.53;5012492;28;20582;-63
2022/10/25 03:29:04;;;;;;;14.07;5.37;;;;;;;12.74;100.00;94831.22;5012547;28;20207;-63
2022/10/25 03:31:29;;;;;;;17.60;5.55;;;;;;;12.96;100.00;94864.06;5012324;28;20187;-59
2022/10/25 03:33:55;;;;;;;14.50;5.30;;;;;;;12.86;100.00;94854.81;5012466;28;20218;-61
2022/10/25 03:36:20;;;;;;;13.43;5.32;;;;;;;12.94;100.00;94863.38;5012552;28;20206;-63
2022/10/25 03:38:45;;;;;;;14.27;5.83;;;;;;;13.14;100.00;94875.16;5012282;28;20201;-62
2022/10/25 03:41:11;;;;;;;15.70;5.28;;;;;;;12.95;100.00;94859.88;5012277;28;20237;-63
2022/10/25 03:43:36;;;;;;;20.42;5.97;;;;;;;12.67;100.00;94832.69;5010619;28;20197;-63
2022/10/25 03:46:02;;;;;;;15.60;5.27;;;;;;;12.51;100.00;94847.75;5012273;28;20274;-62
2022/10/25 03:48:27;;;;;;;15.40;5.77;;;;;;;12.33;100.00;94860.41;5012024;28;20199;-59
2022/10/25 03:50:53;;;;;;;15.53;6.13;;;;;;;12.39;100.00;94864.16;5012188;28;20210;-60
2022/10/25 03:53:19;;;;;;;15.10;5.07;;;;;;;12.68;100.00;94864.13;5010711;28;20191;-60
2022/10/25 03:55:45;;;;;;;14.60;6.00;;;;;;;12.38;100.00;94849.81;5011728;28;20745;-63
2022/10/25 03:58:10;;;;;;;27.30;6.17;;;;;;;12.37;100.00;94848.19;5011989;28;20195;-63
2022/10/25 04:00:35;;;;;;;15.97;5.77;;;;;;;12.48;100.00;94842.94;5011786;28;20205;-65
2022/10/25 04:03:02;;;;;;;15.00;5.40;;;;;;;12.33;100.00;94850.22;5011868;28;20187;-63
2022/10/25 04:05:27;;;;;;;20.60;6.03;;;;;;;12.41;100.00;94857.16;5011775;28;20210;-62
2022/10/25 04:07:53;;;;;;;18.00;6.53;;;;;;;12.37;100.00;94856.66;5011817;28;20201;-59
2022/10/25 04:10:19;;;;;;;17.83;6.17;;;;;;;12.33;100.00;94854.50;5011668;28;20217;-62
2022/10/25 04:12:45;;;;;;;14.50;5.90;;;;;;;12.49;100.00;94864.94;5010970;28;20203;-63
2022/10/25 04:15:11;;;;;;;22.37;7.07;;;;;;;12.32;100.00;94843.47;5010302;28;20696;-63
2022/10/25 04:17:36;;;;;;;20.90;6.00;;;;;;;12.25;100.00;94846.72;5011584;28;20183;-62
2022/10/25 04:20:02;;;;;;;16.87;6.57;;;;;;;12.37;100.00;94854.09;5011686;28;20229;-63
2022/10/25 04:22:28;;;;;;;16.07;6.83;;;;;;;12.52;100.00;94857.03;5011577;28;20232;-62
2022/10/25 04:24:53;;;;;;;14.48;5.40;;;;;;;12.57;100.00;94870.16;5011494;28;20678;-62
2022/10/25 04:27:18;;;;;;;14.37;6.00;;;;;;;12.38;100.00;94852.34;5011312;28;20721;-63
2022/10/25 04:29:44;;;;;;;24.53;6.60;;;;;;;12.31;100.00;94848.72;5011392;28;20206;-61
2022/10/25 04:32:10;;;;;;;15.23;6.27;;;;;;;12.26;100.00;94848.34;5010353;28;20669;-64
2022/10/25 04:34:36;;;;;;;22.30;7.30;;;;;;;11.70;100.00;94855.81;5011141;28;20238;-61
2022/10/25 04:37:01;;;;;;;25.07;6.97;;;;;;;11.73;100.00;94861.47;5011501;28;20683;-64
2022/10/25 04:39:27;;;;;;;18.43;6.10;;;;;;;11.82;100.00;94871.78;5010209;28;20229;-60
2022/10/25 04:41:52;;;;;;;15.90;6.70;;;;;;;11.87;100.00;94872.19;5011496;28;20231;-59
2022/10/25 04:44:18;;;;;;;18.57;5.77;;;;;;;12.03;100.00;94877.56;5011449;28;20293;-62
2022/10/25 04:46:43;;;;;;;17.67;6.00;;;;;;;12.36;100.00;94888.16;5011120;28;20179;-62
2022/10/25 04:49:11;;;;;;;25.43;7.67;;;;;;;12.31;100.00;94889.50;5010970;28;20693;-62
2022/10/25 04:51:36;;;;;;;20.63;7.83;;;;;;;12.14;100.00;94874.91;5011050;28;20183;-63
2022/10/25 04:54:02;;;;;;;24.50;8.60;;;;;;;11.92;100.00;94867.50;5009864;28;20705;-64
2022/10/25 04:56:27;;;;;;;21.70;8.77;;;;;;;11.98;100.00;94882.28;5011119;28;20309;-62
2022/10/25 04:58:59;;;;;;;22.07;6.97;;;;;;;11.76;100.00;94876.47;5011542;28;20271;-63
2022/10/25 05:01:25;;;;;;;22.33;7.60;;;;;;;11.92;100.00;94880.25;5011568;28;20197;-63
2022/10/25 05:03:50;;;;;;;21.17;8.00;;;;;;;11.95;100.00;94880.78;5009712;28;20214;-60
2022/10/25 05:06:22;;;;;;;23.43;6.30;;;;;;;11.88;100.00;94873.81;5010966;28;20249;-60
2022/10/25 05:08:49;;;;;;;17.00;6.50;;;;;;;11.99;100.00;94886.41;5010912;28;20223;-61
2022/10/25 05:11:18;;;;;;;20.40;6.60;;;;;;;11.91;100.00;94876.88;5011070;28;20186;-61
2022/10/25 05:13:44;;;;;;;22.77;6.80;;;;;;;11.87;100.00;94879.81;5010801;28;20195;-59
2022/10/25 05:16:21;;;;;;;19.63;6.93;;;;;;;11.97;100.00;94885.75;5010791;28;20211;-61
2022/10/25 05:18:47;;;;;;;19.00;6.67;;;;;;;12.18;100.00;94894.09;5009749;28;20230;-62
2022/10/25 05:21:15;;;;;;;18.60;7.10;;;;;;;12.23;100.00;94879.19;5010612;28;20241;-62
2022/10/25 05:23:41;;;;;;;16.37;6.17;;;;;;;12.34;100.00;94879.06;5011015;28;20195;-64
2022/10/25 05:26:11;;;;;;;23.37;7.63;;;;;;;12.25;100.00;94878.13;5014142;28;20194;-62
2022/10/25 05:28:38;;;;;;;17.73;7.90;;;;;;;12.68;100.00;94899.81;5014166;28;20195;-63
2022/10/25 05:31:04;;;;;;;14.90;7.37;;;;;;;12.76;100.00;94898.22;5014140;28;20556;-61
2022/10/25 05:33:29;;;;;;;29.20;8.70;;;;;;;12.67;100.00;94906.66;5014043;28;20256;-64
2022/10/25 05:35:55;;;;;;;29.03;8.43;;;;;;;12.44;100.00;94897.72;5013558;28;21038;-62
2022/10/25 05:38:20;;;;;;;26.40;7.23;;;;;;;12.43;100.00;94922.41;5013198;28;20673;-62
2022/10/25 05:40:56;;;;;;;18.73;6.67;;;;;;;12.48;100.00;94924.53;5011431;28;20214;-63
2022/10/25 05:43:22;;;;;;;22.90;7.37;;;;;;;12.62;100.00;94942.00;5013570;28;20558;-62
2022/10/25 05:45:48;;;;;;;19.63;7.20;;;;;;;12.64;100.00;94950.31;5013243;28;20293;-63
2022/10/25 05:48:13;;;;;;;20.97;6.67;;;;;;;12.73;100.00;94952.03;5012039;28;20194;-62
2022/10/25 05:50:39;;;;;;;17.27;6.70;;;;;;;12.57;100.00;94924.53;5013510;28;20211;-62
2022/10/25 05:53:05;;;;;;;21.03;7.27;;;;;;;12.51;100.00;94924.25;5013617;28;20301;-61
2022/10/25 05:55:32;;;;;;;24.87;8.80;;;;;;;12.68;100.00;94938.91;5013623;28;20280;-63
2022/10/25 05:57:58;;;;;;;30.07;10.97;;;;;;;12.48;100.00;94938.09;5012482;28;20195;-61
2022/10/25 06:00:24;;;;;;;29.17;10.77;;;;;;;12.25;100.00;94934.19;5013454;28;20269;-63
2022/10/25 06:02:49;;;;;;;20.97;11.17;;;;;;;12.28;100.00;94945.88;5013537;28;20197;-63
2022/10/25 06:05:15;;;;;;;31.08;12.35;;;;;;;12.51;100.00;94955.69;5013639;28;20235;-64
2022/10/25 06:07:41;;;;;;;24.63;12.55;;;;;;;12.66;100.00;94971.38;5012242;28;20680;-64
2022/10/25 06:10:06;;;;;;;36.67;13.67;;;;;;;12.39;100.00;94955.94;5013706;28;20637;-62
2022/10/25 06:12:32;;;;;;;37.73;14.60;;;;;;;12.23;100.00;94953.91;5013593;28;20194;-64
2022/10/25 06:14:57;;;;;;;35.50;13.90;;;;;;;12.49;100.00;94946.53;5012069;28;20346;-62
2022/10/25 06:17:22;;;;;;;35.43;12.90;;;;;;;12.35;100.00;94950.31;5013406;28;20211;-65
2022/10/25 06:19:48;;;;;;;36.00;13.03;;;;;;;12.44;100.00;94962.22;5011927;28;20309;-62
2022/10/25 06:22:13;;;;;;;30.90;16.23;;;;;;;12.21;100.00;94952.44;5013341;28;20551;-62
2022/10/25 06:24:39;;;;;;;35.07;17.03;;;;;;;12.48;100.00;94960.25;5013170;28;20719;-62
2022/10/25 06:27:04;;;;;;;33.90;15.00;;;;;;;12.34;100.00;94953.78;5013153;28;20510;-61
2022/10/25 06:29:30;;;;;;;30.90;14.47;;;;;;;12.66;100.00;94969.63;5013482;28;20203;-62
2022/10/25 06:31:55;;;;;;;36.90;13.07;;;;;;;12.92;100.00;94990.31;5013116;28;20321;-62
2022/10/25 06:34:20;;;;;;;30.47;12.10;;;;;;;13.01;100.00;94993.81;5013148;28;20238;-62
2022/10/25 06:36:47;;;;;;;28.47;11.30;;;;;;;13.24;100.00;94995.13;5012748;28;21446;-59
2022/10/25 06:39:12;;;;;;;33.15;9.68;;;;;;;13.46;100.00;95039.03;5012272;28;20242;-62
2022/10/25 06:41:39;;;;;;;22.10;9.27;;;;;;;13.61;100.00;95034.28;5013638;28;20268;-63
2022/10/25 06:44:06;;;;;;;20.87;9.30;;;;;;;13.82;98.97;95041.75;5012981;28;20215;-62
2022/10/25 06:46:33;;;;;;;29.60;9.63;;;;;;;13.93;100.00;95027.06;5012928;28;20194;-62
2022/10/25 06:48:59;;;;;;;23.57;10.20;;;;;;;14.08;99.19;95038.41;5013221;28;20214;-61
2022/10/25 06:51:27;;;;;;;22.63;7.93;;;;;;;14.10;99.10;95033.16;5011503;28;20191;-62
2022/10/25 06:53:57;;;;;;;24.38;8.02;;;;;;;14.30;98.37;95040.63;5012932;28;20290;-62
2022/10/25 06:56:24;;;;;;;22.53;7.57;;;;;;;14.63;95.69;95071.66;5074363;23;20282;-62
2022/10/25 06:58:50;;;;;;;18.02;7.13;;;;;;;14.75;96.99;95047.47;5072352;28;20206;-63
2022/10/25 07:01:18;;;;;;;26.73;9.77;;;;;;;14.91;96.74;95050.19;5072027;28;20215;-62
2022/10/25 07:03:45;;;;;;;39.40;11.52;;;;;;;15.14;93.40;95089.78;5072108;28;20267;-62
2022/10/25 07:06:15;;;;;;;36.90;13.35;;;;;;;15.05;94.00;95065.84;5072716;28;20663;-63
2022/10/25 07:08:43;;;;;;;42.05;12.77;;;;;;;15.22;92.66;95081.34;5072340;28;20191;-63
2022/10/25 07:11:17;;;;;;;34.40;12.57;;;;;;;15.24;93.50;95056.41;5072544;28;20278;-63
2022/10/25 07:13:43;;;;;;;24.67;8.85;;;;;;;15.38;88.76;95118.19;5072203;28;20197;-62
2022/10/25 07:16:13;;;;;;;23.50;8.50;;;;;;;15.28;88.29;95106.38;5071084;28;20212;-62
2022/10/25 07:18:39;;;;;;;21.58;9.98;;;;;;;15.34;89.17;95093.00;5072107;28;20681;-63
2022/10/25 07:21:12;;;;;;;32.97;9.45;;;;;;;15.46;90.70;95063.66;5072115;28;20185;-63
2022/10/25 07:23:41;;;;;;;21.10;8.38;;;;;;;15.69;89.44;95087.84;5070604;28;20589;-63
2022/10/25 07:26:12;;;;;;;22.92;8.15;;;;;;;15.87;88.01;95098.88;5088214;28;20688;-63
2022/10/25 07:28:38;;;;;;;23.33;8.63;;;;;;;16.15;85.01;95141.34;5072079;28;20217;-62
2022/10/25 07:31:03;;;;;;;16.08;7.43;;;;;;;16.27;84.89;95134.19;5072370;28;20544;-63
2022/10/25 07:33:29;;;;;;;18.88;7.72;;;;;;;16.48;83.57;95144.91;5072294;28;20224;-62
2022/10/25 07:35:55;;;;;;;25.70;8.07;;;;;;;16.67;78.30;95225.09;5072142;28;20205;-63
2022/10/25 07:38:20;;;;;;;20.00;7.28;;;;;;;16.65;80.24;95173.09;5071793;28;20200;-61
2022/10/25 07:40:45;;;;;;;25.48;7.85;;;;;;;16.77;80.54;95171.84;5071761;28;20593;-62
2022/10/25 07:43:11;;;;;;;26.75;8.80;;;;;;;17.13;79.24;95179.38;5071696;28;20659;-62
2022/10/25 07:45:37;;;;;;;24.70;8.85;;;;;;;17.38;78.45;95193.88;5071687;28;20287;-62
2022/10/25 07:48:02;;;;;;;20.27;8.57;;;;;;;17.59;76.93;95219.97;5070462;28;20193;-62
2022/10/25 07:50:28;;;;;;;19.75;8.70;;;;;;;17.75;76.99;95214.84;5072031;28;20626;-62
2022/10/25 07:52:56;;;;;;;28.38;8.35;;;;;;;18.04;75.31;95232.41;5071672;28;20227;-61
2022/10/25 07:55:22;;;;;;;24.15;9.27;;;;;;;18.41;74.60;95237.81;5070256;28;20224;-61
2022/10/25 07:57:47;;;;;;;20.20;8.02;;;;;;;18.69;73.54;95248.59;5071804;28;20227;-63
2022/10/25 08:00:13;;;;;;;21.95;9.93;;;;;;;19.05;71.48;95284.09;5071686;28;20644;-61
2022/10/25 08:02:38;;;;;;;29.42;12.50;;;;;;;19.25;69.75;95295.63;5071433;28;20690;-62
2022/10/25 08:05:04;;;;;;;35.88;12.15;;;;;;;19.24;70.82;95244.22;5071338;28;20209;-62
2022/10/25 08:07:29;;;;;;;33.70;12.82;;;;;;;19.26;71.34;95239.72;5071413;28;20686;-62
2022/10/25 08:09:55;;;;;;;36.90;13.07;;;;;;;19.69;69.81;95272.72;5071359;28;20671;-61
2022/10/25 08:12:20;;;;;;;33.20;13.15;;;;;;;19.93;68.44;95289.84;5071239;28;20193;-62
2022/10/25 08:14:46;;;;;;;36.17;13.85;;;;;;;20.10;68.69;95276.63;5071322;28;20292;-62
2022/10/25 08:17:11;;;;;;;34.00;13.02;;;;;;;20.41;67.10;95309.38;5071221;28;20621;-61
2022/10/25 08:19:37;;;;;;;33.35;13.93;;;;;;;20.64;66.42;95318.72;5071151;28;20211;-61
2022/10/25 08:22:03;;;;;;;30.10;13.27;;;;;;;21.02;64.53;95350.53;5069821;28;20197;-64
2022/10/25 08:24:28;;;;;;;32.78;14.85;;;;;;;21.05;63.16;95365.69;5071127;28;20568;-62
2022/10/25 08:26:54;;;;;;;44.78;14.98;;;;;;;21.35;61.45;95413.88;5069744;28;20188;-62
2022/10/25 08:29:19;;;;;;;43.63;14.52;;;;;;;21.48;61.00;95388.22;5070886;28;20228;-63
2022/10/25 08:31:45;;;;;;;39.38;14.68;;;;;;;21.68;61.11;95375.53;5070938;28;20707;-63
2022/10/25 08:34:10;;;;;;;42.70;15.98;;;;;;;21.88;60.31;95383.56;5071120;28;20213;-62
2022/10/25 08:36:36;;;;;;;38.25;13.52;;;;;;;21.95;59.19;95400.00;5070956;28;20635;-63
2022/10/25 08:39:01;;;;;;;37.88;14.35;;;;;;;22.18;57.51;95436.94;5070539;28;20550;-63
2022/10/25 08:41:49;;;;;;;31.48;12.90;;;;;;;22.30;57.74;95414.78;5069574;28;20291;-63
2022/10/25 08:44:20;;;;;;;41.30;12.50;;;;;;;22.53;56.03;95451.69;5070692;28;20766;-61
2022/10/25 08:47:09;;;;;;;26.35;9.20;;;;;;;22.16;55.27;95452.66;5070796;28;20651;-62
2022/10/25 08:49:50;;;;;;;33.35;10.23;;;;;;;22.41;54.83;95473.88;5070711;28;20266;-61
2022/10/25 08:52:34;;;;;;;26.60;9.52;;;;;;;22.81;54.16;95468.16;5069400;28;20500;-62
2022/10/25 08:55:02;;;;;;;26.15;10.65;;;;;;;23.09;53.55;95476.81;5086336;28;20212;-62
2022/10/25 08:57:36;;;;;;;31.27;10.70;;;;;;;23.36;52.52;95490.84;5069326;28;20177;-61
2022/10/25 09:00:09;;;;;;;28.02;10.55;;;;;;;23.29;53.83;95440.66;5089921;28;20224;-63
2022/10/25 09:02:49;;;;;;;31.45;9.88;;;;;;;23.68;52.17;95489.47;5077361;28;20176;-64
2022/10/25 09:05:38;;;;;;;24.48;10.75;;;;;;;23.76;52.15;95479.75;5077467;28;20215;-63
2022/10/25 09:08:26;;;;;;;26.63;9.85;;;;;;;23.86;50.86;95507.97;5077368;28;20180;-64
2022/10/25 09:11:17;;;;;;;28.33;10.15;;;;;;;24.37;49.25;95514.50;5077239;28;20211;-64
2022/10/25 09:13:51;;;;;;;21.85;9.90;;;;;;;24.38;48.73;95513.47;5077525;28;20181;-63
2022/10/25 09:16:29;;;;;;;30.25;9.63;;;;;;;24.56;48.02;95516.38;5076957;28;20212;-63
2022/10/25 09:18:56;;;;;;;25.92;9.77;;;;;;;24.79;48.60;95483.06;5077103;28;20211;-63
2022/10/25 09:21:44;;;;;;;32.60;9.25;;;;;;;24.84;47.54;95509.31;5076829;28;20185;-64
2022/10/25 09:24:25;;;;;;;29.33;10.32;;;;;;;25.12;46.90;95526.56;5077039;28;20205;-64
2022/10/25 09:26:53;;;;;;;30.67;10.88;;;;;;;25.21;46.69;95509.78;5077035;28;20192;-64
2022/10/25 09:29:31;;;;;;;27.35;9.45;;;;;;;24.79;47.70;95467.44;5077002;28;20231;-63
2022/10/25 09:31:59;;;;;;;31.70;10.73;;;;;;;24.82;47.40;95493.09;5092459;28;20192;-63
2022/10/25 09:34:30;;;;;;;31.42;9.75;;;;;;;24.90;46.81;95498.09;5076852;28;20204;-63
2022/10/25 09:37:18;;;;;;;27.50;9.93;;;;;;;25.15;46.19;95511.34;5076754;28;20212;-63
2022/10/25 09:39:52;;;;;;;27.63;9.38;;;;;;;25.58;45.39;95512.63;5076958;28;20281;-62
2022/10/25 09:42:23;;;;;;;30.52;10.23;;;;;;;25.88;45.42;95501.78;5077171;28;20227;-63
2022/10/25 09:45:00;;;;;;;23.73;10.32;;;;;;;25.59;45.18;95509.00;5077113;28;20208;-64
2022/10/25 09:47:42;;;;;;;28.77;11.75;;;;;;;25.04;45.44;95487.72;5076974;28;20180;-65
2022/10/25 09:50:21;;;;;;;27.10;10.48;;;;;;;25.62;45.74;95472.13;5075489;28;20285;-63
2022/10/25 09:52:52;;;;;;;24.88;10.80;;;;;;;25.94;46.00;95452.22;5075286;28;20527;-63
2022/10/25 09:55:36;;;;;;;24.50;10.25;;;;;;;26.04;46.48;95438.78;5076842;28;20215;-64
2022/10/25 09:58:02;;;;;;;31.23;11.43;;;;;;;25.96;46.31;95444.22;5076812;28;20189;-64
2022/10/25 10:00:28;;;;;;;28.35;10.68;;;;;;;25.97;45.33;95461.44;5075131;28;20713;-63
2022/10/25 10:02:54;;;;;;;31.35;11.77;;;;;;;26.13;43.33;95531.41;5076583;28;20192;-62
2022/10/25 10:05:20;;;;;;;29.90;11.40;;;;;;;25.71;43.56;95502.16;5076815;28;20216;-63
2022/10/25 10:07:48;;;;;;;22.27;10.38;;;;;;;25.70;44.02;95484.13;5076473;28;20184;-64
2022/10/25 10:10:25;;;;;;;26.42;9.65;;;;;;;25.15;44.55;95454.06;5076467;28;20204;-62
2022/10/25 10:13:11;;;;;;;25.52;10.32;;;;;;;24.94;44.84;95436.88;5072761;28;20569;-60
2022/10/25 10:15:50;;;;;;;43.45;11.98;;;;;;;24.89;44.97;95413.22;5073025;28;20209;-60
2022/10/25 10:18:18;;;;;;;29.05;10.63;;;;;;;25.34;45.40;95400.41;5073043;28;20200;-60
2022/10/25 10:21:09;;;;;;;26.77;11.48;;;;;;;25.22;45.08;95412.44;5073122;28;20208;-60
2022/10/25 10:23:50;;;;;;;28.85;10.65;;;;;;;25.44;45.33;95411.25;5071505;28;20201;-60
2022/10/25 10:26:28;;;;;;;24.33;9.88;;;;;;;25.20;44.92;95398.81;5073168;28;20188;-60
2022/10/25 10:29:21;;;;;;;32.17;9.65;;;;;;;25.27;44.60;95413.41;5097498;23;20232;-63
2022/10/25 10:31:52;;;;;;;22.17;9.35;;;;;;;25.60;44.69;95403.00;5093252;28;20200;-62
2022/10/25 10:34:56;;;;;;;30.98;9.35;;;;;;;25.68;46.64;95324.63;5093066;28;20204;-62
2022/10/25 10:37:23;;;;;;;31.33;10.43;;;;;;;25.98;45.73;95362.19;5088139;28;20211;-60
2022/10/25 10:40:01;;;;;;;28.88;9.90;;;;;;;26.03;45.24;95378.03;5092889;28;20200;-62
2022/10/25 10:42:32;;;;;;;28.00;11.07;;;;;;;26.06;45.95;95346.31;5093497;28;20191;-62
2022/10/25 10:45:14;;;;;;;36.42;10.52;;;;;;;26.16;45.49;95359.72;5092644;28;20279;-62
2022/10/25 10:47:44;;;;;;;26.95;9.45;;;;;;;25.94;44.23;95397.50;5093736;28;20192;-63
2022/10/25 10:50:21;;;;;;;26.70;9.68;;;;;;;25.91;42.88;95434.41;5045122;22;20700;-63
2022/10/25 10:53:02;;;;;;;24.85;9.05;;;;;;;25.67;44.09;95381.13;5014790;28;20692;-62
2022/10/25 10:55:32;;;;;;;23.20;9.70;;;;;;;25.57;43.70;95396.38;5032425;28;20713;-61
2022/10/25 10:58:04;;;;;;;24.70;9.85;;;;;;;25.65;43.61;95387.56;5032686;28;20198;-61
2022/10/25 11:00:31;;;;;;;30.77;10.05;;;;;;;25.67;43.88;95380.34;5032461;28;20206;-61
2022/10/25 11:02:57;;;;;;;21.10;9.93;;;;;;;25.73;43.49;95389.94;5032390;28;20197;-60
2022/10/25 11:05:31;;;;;;;25.02;10.27;;;;;;;25.68;42.88;95408.78;5032645;28;20218;-60
2022/10/25 11:08:00;;;;;;;17.65;8.75;;;;;;;26.16;44.81;95320.63;5014670;28;20181;-64
2022/10/25 11:10:30;;;;;;;23.65;9.23;;;;;;;26.16;46.07;95288.56;5032304;28;20217;-60
2022/10/25 11:13:09;;;;;;;27.33;9.73;;;;;;;26.28;45.85;95295.47;5032219;28;20186;-63
2022/10/25 11:15:46;;;;;;;25.13;9.10;;;;;;;26.42;44.39;95343.94;5032372;28;20209;-61
2022/10/25 11:18:12;;;;;;;24.48;8.65;;;;;;;26.63;41.79;95432.31;5032511;28;20273;-64
2022/10/25 11:20:52;;;;;;;27.17;9.25;;;;;;;26.48;43.42;95376.22;5032301;28;20218;-60
2022/10/25 11:23:35;;;;;;;22.92;8.68;;;;;;;26.87;42.46;95396.03;5030855;28;20186;-61
2022/10/25 11:26:19;;;;;;;28.05;9.27;;;;;;;26.81;40.44;95477.78;5032335;28;20267;-63
2022/10/25 11:29:18;;;;;;;20.05;8.35;;;;;;;26.87;39.65;95490.00;5032091;28;20190;-60
2022/10/25 11:32:22;;;;;;;23.45;8.70;;;;;;;27.07;39.77;95462.00;5032457;28;20197;-59
2022/10/25 11:34:57;;;;;;;17.85;7.03;;;;;;;27.18;47.44;95161.00;5032141;28;20220;-61